Elliot Lake, Canada
Current Conditions -  °F | °C
As of 4:00 PM on Thursday 27 Nov 2014 (Local Time) from CYZE Reporting Station
Overcast Overcast  
Wind Chill:   Ceiling: 3000
Heat Index: 23°   Visibility: 9mi
Dew Point: 14°   Wind: 17mph
Humidity: 68%   Direction: 280°W
Pressure: 30.13"   Gusts: 24mph
Location:  46.38°N, 82.65°W
Report Text: CYZE 272100Z AUTO 28015G21KT 9SM OVC030 M05/M10 A3013 RMK ICG SLP214
Loading
Personal Weather Stations






























Interactive Weather Map New forecast layout! Learn more

10-Day Weather Forecast

Advertisements
Track Severe Weather on mobile